createdAt,value
2019-03-19T00:00:23.030Z,11.53
2019-03-19T00:02:50.430Z,11.45
2019-03-19T00:05:17.801Z,12.10
2019-03-19T00:07:45.086Z,12.53
2019-03-19T00:10:12.644Z,11.90
2019-03-19T00:12:39.938Z,11.95
2019-03-19T00:15:08.471Z,11.65
2019-03-19T00:17:35.822Z,11.18
2019-03-19T00:20:04.590Z,13.03
2019-03-19T00:22:32.188Z,11.38
2019-03-19T00:24:59.486Z,12.20
2019-03-19T00:27:26.767Z,12.05
2019-03-19T00:29:54.052Z,12.78
2019-03-19T00:32:21.332Z,11.53
2019-03-19T00:34:48.630Z,12.73
2019-03-19T00:37:15.981Z,11.15
2019-03-19T00:39:43.272Z,10.58
2019-03-19T00:42:10.601Z,12.28
2019-03-19T00:44:37.963Z,12.13
2019-03-19T00:47:05.237Z,11.63
2019-03-19T00:49:32.507Z,10.85
2019-03-19T00:51:59.834Z,11.48
2019-03-19T00:54:27.135Z,11.08
2019-03-19T00:56:54.459Z,11.75
2019-03-19T00:59:21.795Z,14.07
2019-03-19T01:01:49.090Z,12.55
2019-03-19T01:04:16.415Z,12.40
2019-03-19T01:06:43.690Z,11.43
2019-03-19T01:09:10.980Z,11.88
2019-03-19T01:11:38.362Z,10.72
2019-03-19T01:14:06.511Z,11.70
2019-03-19T01:16:34.057Z,10.53
2019-03-19T01:19:01.427Z,10.70
2019-03-19T01:21:28.726Z,12.58
2019-03-19T01:23:56.003Z,12.10
2019-03-19T01:26:23.297Z,12.10
2019-03-19T01:28:50.586Z,11.90
2019-03-19T01:31:17.947Z,10.30
2019-03-19T01:33:45.227Z,10.50
2019-03-19T01:36:12.528Z,11.95
2019-03-19T01:38:39.842Z,10.55
2019-03-19T01:41:07.193Z,10.43
2019-03-19T01:43:34.471Z,12.43
2019-03-19T01:46:01.784Z,10.68
2019-03-19T01:48:29.077Z,11.85
2019-03-19T01:50:56.369Z,11.12
2019-03-19T01:53:23.654Z,11.88
2019-03-19T01:55:50.936Z,11.93
2019-03-19T01:58:18.253Z,9.78
2019-03-19T02:00:45.548Z,10.28
2019-03-19T02:03:12.890Z,11.93
2019-03-19T02:05:40.208Z,12.18
2019-03-19T02:08:07.494Z,10.90
2019-03-19T02:10:34.779Z,10.93
2019-03-19T02:13:02.136Z,9.95
2019-03-19T02:15:29.432Z,11.97
2019-03-19T02:17:56.836Z,9.78
2019-03-19T02:20:24.187Z,10.43
2019-03-19T02:22:51.477Z,12.03
2019-03-19T02:25:18.821Z,10.00
2019-03-19T02:27:46.132Z,10.50
2019-03-19T02:30:16.534Z,10.50
2019-03-19T02:32:44.031Z,11.30
2019-03-19T02:35:11.584Z,10.20
2019-03-19T02:37:38.946Z,8.30
2019-03-19T02:40:08.191Z,8.83
2019-03-19T02:42:35.544Z,10.20
2019-03-19T02:45:03.467Z,9.98
2019-03-19T02:47:30.858Z,11.40
2019-03-19T02:49:58.213Z,10.15
2019-03-19T02:52:25.500Z,10.15
2019-03-19T02:54:52.780Z,10.55
2019-03-19T02:57:20.066Z,9.88
2019-03-19T02:59:47.381Z,9.35
2019-03-19T03:02:14.723Z,9.48
2019-03-19T03:04:42.060Z,8.58
2019-03-19T03:07:09.362Z,8.95
2019-03-19T03:09:36.705Z,10.35
2019-03-19T03:12:04.307Z,8.48
2019-03-19T03:14:31.662Z,9.20
2019-03-19T03:16:58.992Z,11.50
2019-03-19T03:19:26.376Z,9.60
2019-03-19T03:21:53.655Z,9.63
2019-03-19T03:24:20.949Z,10.05
2019-03-19T03:26:48.922Z,11.33
2019-03-19T03:29:16.277Z,11.08
2019-03-19T03:31:43.558Z,9.85
2019-03-19T03:34:10.929Z,9.88
2019-03-19T03:36:38.301Z,9.75
2019-03-19T03:39:06.863Z,10.32
2019-03-19T03:41:34.298Z,8.68
2019-03-19T03:44:01.678Z,9.33
2019-03-19T03:46:29.031Z,9.40
2019-03-19T03:48:56.389Z,8.53
2019-03-19T03:51:23.685Z,9.10
2019-03-19T03:53:51.088Z,10.20
2019-03-19T03:56:18.363Z,8.53
2019-03-19T03:58:59.602Z,7.33
2019-03-19T04:01:14.655Z,10.28
2019-03-19T04:03:42.008Z,9.28
2019-03-19T04:06:09.527Z,11.28
2019-03-19T04:08:36.902Z,8.78
2019-03-19T04:11:04.341Z,10.45
2019-03-19T04:13:31.706Z,7.85
2019-03-19T04:15:59.013Z,9.50
2019-03-19T04:18:26.348Z,8.53
2019-03-19T04:20:53.668Z,9.30
2019-03-19T04:23:21.013Z,9.70
2019-03-19T04:25:48.287Z,6.62
2019-03-19T04:28:15.569Z,9.08
2019-03-19T04:30:42.842Z,8.40
2019-03-19T04:33:10.142Z,10.72
2019-03-19T04:35:37.414Z,9.75
2019-03-19T04:38:04.701Z,9.75
2019-03-19T04:40:31.979Z,10.08
2019-03-19T04:42:59.287Z,10.05
2019-03-19T04:45:26.564Z,8.45
2019-03-19T04:47:53.839Z,9.95
2019-03-19T04:50:21.134Z,8.30
2019-03-19T04:52:48.408Z,9.30
2019-03-19T04:55:16.544Z,9.40
2019-03-19T04:57:43.820Z,8.15
2019-03-19T05:00:12.695Z,9.55
2019-03-19T05:02:40.228Z,9.30
2019-03-19T05:05:11.266Z,9.78
2019-03-19T05:07:38.662Z,8.83
2019-03-19T05:10:07.552Z,7.30
2019-03-19T05:12:34.906Z,8.93
2019-03-19T05:15:02.333Z,9.98
2019-03-19T05:17:29.689Z,7.62
2019-03-19T05:19:57.038Z,9.03
2019-03-19T05:22:24.325Z,8.35
2019-03-19T05:24:51.691Z,6.87
2019-03-19T05:27:18.966Z,9.45
2019-03-19T05:29:46.245Z,8.83
2019-03-19T05:32:13.586Z,8.53
2019-03-19T05:34:40.925Z,7.90
2019-03-19T05:37:08.277Z,9.08
2019-03-19T05:39:35.560Z,9.93
2019-03-19T05:42:02.833Z,8.83
2019-03-19T05:44:30.124Z,11.10
2019-03-19T05:46:57.424Z,10.08
2019-03-19T05:49:24.766Z,9.95
2019-03-19T05:51:52.041Z,9.08
2019-03-19T05:54:19.345Z,10.20
2019-03-19T05:56:46.688Z,9.28
2019-03-19T05:59:13.973Z,10.53
2019-03-19T06:01:41.245Z,7.80
2019-03-19T06:04:08.840Z,7.53
2019-03-19T06:06:36.123Z,8.20
2019-03-19T06:09:04.861Z,8.98
2019-03-19T06:11:32.193Z,8.45
2019-03-19T06:13:59.542Z,8.53
2019-03-19T06:16:26.828Z,7.60
2019-03-19T06:18:54.183Z,7.22
2019-03-19T06:21:21.690Z,8.33
2019-03-19T06:23:48.968Z,9.38
2019-03-19T06:26:16.896Z,7.35
2019-03-19T06:28:44.350Z,7.65
2019-03-19T06:31:11.640Z,9.58
2019-03-19T06:33:38.940Z,67.45
2019-03-19T06:36:06.243Z,177.80
2019-03-19T06:38:33.536Z,150.25
2019-03-19T06:41:01.027Z,85.50
2019-03-19T06:43:28.427Z,56.00
2019-03-19T06:45:55.711Z,41.30
2019-03-19T06:48:23.076Z,42.70
2019-03-19T06:50:50.402Z,47.13
2019-03-19T06:53:17.766Z,45.60
2019-03-19T06:55:45.067Z,38.20
2019-03-19T06:58:12.367Z,41.13
2019-03-19T07:00:39.646Z,36.90
2019-03-19T07:03:06.956Z,33.02
2019-03-19T07:05:34.246Z,32.45
2019-03-19T07:08:01.525Z,34.00
2019-03-19T07:10:29.286Z,26.60
2019-03-19T07:12:56.555Z,28.32
2019-03-19T07:15:23.845Z,25.43
2019-03-19T07:17:51.617Z,24.07
2019-03-19T07:20:23.111Z,22.45
2019-03-19T07:22:50.414Z,22.35
2019-03-19T07:25:17.945Z,20.37
2019-03-19T07:27:45.240Z,18.73
2019-03-19T07:30:19.024Z,19.95
2019-03-19T07:32:46.311Z,19.00
2019-03-19T07:35:13.666Z,21.57
2019-03-19T07:37:41.010Z,18.90
2019-03-19T07:40:09.471Z,17.62
2019-03-19T07:42:36.754Z,15.00
2019-03-19T07:45:05.990Z,17.42
2019-03-19T07:47:33.277Z,15.13
2019-03-19T07:50:00.559Z,15.80
2019-03-19T07:52:27.860Z,13.93
2019-03-19T07:54:55.175Z,15.38
2019-03-19T07:57:22.533Z,16.67
2019-03-19T07:59:49.900Z,13.80
2019-03-19T08:02:17.259Z,15.18
2019-03-19T08:04:44.539Z,11.70
2019-03-19T08:07:11.845Z,14.83
2019-03-19T08:09:39.202Z,14.95
2019-03-19T08:12:06.591Z,12.10
2019-03-19T08:14:33.898Z,11.80
2019-03-19T08:17:01.182Z,11.15
2019-03-19T08:19:28.460Z,12.50
2019-03-19T08:21:55.743Z,12.18
2019-03-19T08:24:23.040Z,12.28
2019-03-19T08:26:50.388Z,13.58
2019-03-19T08:29:17.741Z,10.90
2019-03-19T08:31:45.019Z,9.58
2019-03-19T08:34:13.011Z,13.03
2019-03-19T08:36:40.382Z,11.18
2019-03-19T08:39:07.746Z,9.68
2019-03-19T08:41:35.154Z,9.35
2019-03-19T08:44:02.429Z,9.55
2019-03-19T08:46:29.710Z,10.43
2019-03-19T08:48:57.002Z,8.05
2019-03-19T08:51:24.363Z,9.60
2019-03-19T08:53:52.054Z,10.58
2019-03-19T08:56:19.336Z,8.30
2019-03-19T08:58:46.606Z,9.30
2019-03-19T09:01:13.938Z,13.43
2019-03-19T09:03:41.206Z,10.55
2019-03-19T09:06:08.486Z,8.03
2019-03-19T09:08:35.767Z,9.55
2019-03-19T09:11:03.037Z,9.50
2019-03-19T09:13:30.343Z,8.48
2019-03-19T09:15:57.677Z,7.95
2019-03-19T09:18:24.996Z,9.30
2019-03-19T09:20:54.027Z,8.90
2019-03-19T09:23:21.307Z,6.58
2019-03-19T09:25:48.682Z,8.45
2019-03-19T09:28:16.036Z,7.85
2019-03-19T09:30:43.394Z,8.55
2019-03-19T09:33:10.674Z,9.80
2019-03-19T09:35:38.000Z,6.92
2019-03-19T09:38:05.279Z,8.20
2019-03-19T09:40:32.559Z,7.45
2019-03-19T09:42:59.841Z,7.58
2019-03-19T09:45:27.214Z,7.12
2019-03-19T09:47:54.514Z,7.25
2019-03-19T09:50:22.570Z,7.08
2019-03-19T09:52:49.930Z,7.60
2019-03-19T09:55:17.275Z,6.85
2019-03-19T09:57:44.593Z,7.65
2019-03-19T10:00:21.667Z,7.83
2019-03-19T10:02:49.059Z,6.45
2019-03-19T10:05:16.890Z,6.58
2019-03-19T10:07:44.190Z,7.85
2019-03-19T10:10:12.962Z,7.05
2019-03-19T10:12:40.529Z,7.45
2019-03-19T10:15:08.933Z,5.92
2019-03-19T10:17:36.229Z,5.97
2019-03-19T10:20:05.282Z,8.85
2019-03-19T10:22:32.669Z,7.83
2019-03-19T10:24:59.944Z,6.78
2019-03-19T10:27:27.246Z,6.25
2019-03-19T10:29:54.594Z,6.22
2019-03-19T10:32:21.916Z,8.23
2019-03-19T10:34:49.267Z,6.72
2019-03-19T10:37:16.620Z,7.33
2019-03-19T10:39:43.906Z,7.83
2019-03-19T10:42:11.186Z,6.15
2019-03-19T10:44:39.160Z,6.45
2019-03-19T10:47:06.512Z,6.40
2019-03-19T10:49:33.789Z,7.05
2019-03-19T10:52:01.166Z,6.42
2019-03-19T10:54:28.505Z,5.47
2019-03-19T10:56:56.968Z,7.15
2019-03-19T10:59:24.256Z,6.80
2019-03-19T11:01:51.702Z,6.50
2019-03-19T11:04:19.089Z,7.47
2019-03-19T11:06:46.454Z,7.28
2019-03-19T11:09:13.748Z,7.12
2019-03-19T11:11:41.033Z,6.58
2019-03-19T11:14:08.331Z,6.47
2019-03-19T11:16:35.615Z,6.30
2019-03-19T11:19:02.899Z,5.40
2019-03-19T11:21:30.972Z,6.33
2019-03-19T11:23:58.317Z,5.72
2019-03-19T11:26:25.597Z,5.17
2019-03-19T11:28:52.960Z,6.30
2019-03-19T11:31:20.318Z,5.80
2019-03-19T11:33:47.856Z,6.83
2019-03-19T11:36:15.505Z,5.83
2019-03-19T11:38:42.864Z,6.75
2019-03-19T11:41:10.212Z,5.42
2019-03-19T11:43:37.622Z,5.97
2019-03-19T11:46:04.906Z,5.45
2019-03-19T11:48:32.189Z,5.97
2019-03-19T11:50:59.474Z,5.75
2019-03-19T11:53:26.749Z,5.62
2019-03-19T11:55:54.034Z,5.92
2019-03-19T11:58:21.323Z,4.78
2019-03-19T12:00:53.047Z,5.62
2019-03-19T12:03:20.321Z,5.78
2019-03-19T12:05:47.603Z,7.12
2019-03-19T12:08:14.896Z,5.85
2019-03-19T12:10:42.182Z,6.00
2019-03-19T12:13:09.504Z,6.97
2019-03-19T12:15:36.802Z,5.85
2019-03-19T12:18:04.522Z,5.92
2019-03-19T12:20:32.085Z,5.70
2019-03-19T12:22:59.409Z,5.85
2019-03-19T12:25:26.754Z,5.90
2019-03-19T12:27:54.064Z,5.53
2019-03-19T12:30:25.754Z,4.83
2019-03-19T12:32:51.112Z,5.08
2019-03-19T12:35:18.896Z,6.67
2019-03-19T12:37:46.382Z,6.03
2019-03-19T12:40:15.433Z,4.97
2019-03-19T12:42:42.892Z,6.47
2019-03-19T12:45:11.612Z,5.00
2019-03-19T12:47:39.039Z,6.25
2019-03-19T12:50:07.918Z,6.70
2019-03-19T12:52:36.746Z,5.55
2019-03-19T12:55:04.715Z,6.50
2019-03-19T12:57:32.191Z,4.87
2019-03-19T12:59:59.590Z,5.62
2019-03-19T13:02:26.935Z,6.42
2019-03-19T13:04:54.234Z,5.55
2019-03-19T13:07:21.767Z,5.95
2019-03-19T13:09:49.048Z,7.58
2019-03-19T13:12:16.391Z,5.53
2019-03-19T13:14:43.710Z,6.30
2019-03-19T13:17:10.984Z,5.53
2019-03-19T13:19:38.270Z,6.62
2019-03-19T13:22:05.655Z,7.42
2019-03-19T13:24:32.945Z,5.12
2019-03-19T13:27:00.226Z,5.85
2019-03-19T13:29:27.497Z,6.17
2019-03-19T13:31:54.787Z,5.37
2019-03-19T13:34:22.261Z,6.00
2019-03-19T13:36:49.549Z,6.08
2019-03-19T13:39:16.820Z,5.45
2019-03-19T13:41:44.103Z,5.03
2019-03-19T13:44:11.443Z,5.80
2019-03-19T13:46:38.751Z,6.17
2019-03-19T13:49:06.114Z,6.42
2019-03-19T13:51:33.400Z,4.65
2019-03-19T13:54:00.680Z,7.25
2019-03-19T13:56:28.001Z,7.50
2019-03-19T13:58:55.274Z,4.72
2019-03-19T14:01:22.560Z,5.85
2019-03-19T14:03:49.852Z,6.30
2019-03-19T14:06:17.138Z,5.42
2019-03-19T14:08:44.485Z,6.92
2019-03-19T14:11:11.763Z,5.10
2019-03-19T14:13:39.064Z,6.28
2019-03-19T14:16:06.424Z,6.87
2019-03-19T14:18:33.778Z,6.20
2019-03-19T14:21:01.110Z,6.05
2019-03-19T14:23:28.458Z,5.22
2019-03-19T14:25:55.762Z,7.05
2019-03-19T14:28:23.041Z,5.50
2019-03-19T14:30:50.404Z,5.58
2019-03-19T14:33:17.760Z,6.00
2019-03-19T14:35:45.120Z,5.95
2019-03-19T14:38:12.815Z,5.35
2019-03-19T14:40:40.229Z,6.58
2019-03-19T14:43:07.514Z,5.55
2019-03-19T14:45:34.869Z,5.10
2019-03-19T14:48:02.329Z,5.15
2019-03-19T14:50:29.602Z,6.78
2019-03-19T14:52:56.892Z,4.95
2019-03-19T14:55:24.459Z,4.97
2019-03-19T14:57:51.867Z,4.92
2019-03-19T15:00:20.234Z,5.15
2019-03-19T15:02:47.517Z,6.65
2019-03-19T15:05:15.346Z,5.90
2019-03-19T15:07:42.687Z,5.78
2019-03-19T15:10:11.569Z,6.40
2019-03-19T15:12:38.897Z,5.72
2019-03-19T15:15:07.911Z,6.12
2019-03-19T15:17:35.205Z,6.08
2019-03-19T15:20:02.913Z,5.90
2019-03-19T15:22:32.799Z,6.58
2019-03-19T15:24:59.331Z,6.25
2019-03-19T15:27:26.687Z,6.30
2019-03-19T15:29:53.962Z,5.15
2019-03-19T15:32:21.253Z,6.15
2019-03-19T15:34:48.604Z,6.47
2019-03-19T15:37:15.922Z,6.45
2019-03-19T15:39:43.258Z,6.75
2019-03-19T15:42:10.610Z,6.15
2019-03-19T15:44:38.407Z,6.78
2019-03-19T15:47:05.759Z,7.67
2019-03-19T15:49:38.264Z,6.53
2019-03-19T15:52:02.054Z,5.95
2019-03-19T15:54:29.405Z,6.17
2019-03-19T15:56:56.999Z,6.25
2019-03-19T15:59:24.334Z,6.85
2019-03-19T16:01:51.683Z,5.95
2019-03-19T16:04:19.031Z,6.67
2019-03-19T16:06:46.296Z,7.08
2019-03-19T16:09:13.588Z,5.97
2019-03-19T16:11:40.865Z,7.35
2019-03-19T16:14:08.145Z,6.65
2019-03-19T16:16:35.550Z,6.60
2019-03-19T16:19:02.825Z,6.62
2019-03-19T16:21:30.105Z,6.78
2019-03-19T16:23:57.380Z,7.00
2019-03-19T16:26:24.655Z,5.33
2019-03-19T16:28:51.954Z,6.12
2019-03-19T16:31:19.240Z,7.35
2019-03-19T16:33:46.575Z,5.15
2019-03-19T16:36:13.887Z,7.20
2019-03-19T16:38:41.179Z,7.15
2019-03-19T16:41:08.501Z,6.08
2019-03-19T16:43:35.796Z,5.78
2019-03-19T16:46:03.086Z,6.85
2019-03-19T16:48:30.558Z,7.97
2019-03-19T16:50:57.843Z,7.58
2019-03-19T16:53:25.104Z,5.53
2019-03-19T16:55:52.395Z,5.15
2019-03-19T16:58:19.683Z,6.17
2019-03-19T17:00:47.087Z,6.85
2019-03-19T17:03:14.434Z,6.87
2019-03-19T17:05:41.746Z,7.10
2019-03-19T17:08:09.065Z,6.78
2019-03-19T17:10:36.493Z,6.03
2019-03-19T17:13:04.242Z,8.03
2019-03-19T17:15:31.534Z,6.17
2019-03-19T17:17:58.803Z,6.12
2019-03-19T17:20:26.137Z,7.15
2019-03-19T17:22:53.492Z,6.17
2019-03-19T17:25:22.487Z,6.33
2019-03-19T17:27:49.779Z,7.05
2019-03-19T17:30:18.497Z,6.25
2019-03-19T17:32:45.850Z,6.50
2019-03-19T17:35:13.121Z,6.35
2019-03-19T17:37:40.685Z,6.87
2019-03-19T17:40:09.641Z,7.10
2019-03-19T17:42:36.959Z,7.90
2019-03-19T17:45:05.767Z,6.80
2019-03-19T17:47:33.076Z,6.55
2019-03-19T17:50:00.400Z,5.72
2019-03-19T17:52:27.812Z,6.55
2019-03-19T17:54:55.089Z,7.28
2019-03-19T17:57:22.373Z,6.95
2019-03-19T17:59:49.736Z,5.80
2019-03-19T18:02:23.801Z,6.10
2019-03-19T18:04:46.422Z,7.75
2019-03-19T18:07:13.697Z,6.05
2019-03-19T18:09:40.986Z,7.33
2019-03-19T18:12:08.290Z,6.08
2019-03-19T18:14:35.574Z,6.53
2019-03-19T18:17:03.163Z,7.35
2019-03-19T18:19:30.615Z,6.67
2019-03-19T18:21:57.901Z,6.22
2019-03-19T18:24:25.311Z,7.75
2019-03-19T18:26:52.745Z,9.43
2019-03-19T18:29:20.123Z,7.20
2019-03-19T18:31:47.438Z,7.20
2019-03-19T18:34:14.742Z,8.50
2019-03-19T18:36:42.026Z,6.92
2019-03-19T18:39:09.565Z,7.47
2019-03-19T18:41:36.897Z,7.60
2019-03-19T18:44:04.181Z,6.97
2019-03-19T18:46:31.634Z,15.75
2019-03-19T18:48:58.995Z,15.45
2019-03-19T18:51:26.459Z,25.32
2019-03-19T18:53:53.904Z,28.47
2019-03-19T18:56:21.197Z,71.53
2019-03-19T18:58:48.687Z,79.25
2019-03-19T19:01:16.254Z,88.00
2019-03-19T19:03:43.586Z,105.65
2019-03-19T19:06:10.886Z,79.62
2019-03-19T19:08:38.321Z,87.25
2019-03-19T19:11:05.690Z,104.12
2019-03-19T19:13:33.009Z,65.67
2019-03-19T19:16:00.302Z,68.90
2019-03-19T19:18:27.653Z,82.22
2019-03-19T19:20:55.022Z,64.20
2019-03-19T19:23:22.457Z,64.92
2019-03-19T19:25:50.127Z,66.22
2019-03-19T19:28:17.448Z,46.33
2019-03-19T19:30:44.787Z,39.03
2019-03-19T19:33:13.386Z,60.30
2019-03-19T19:35:40.950Z,50.25
2019-03-19T19:38:08.363Z,48.17
2019-03-19T19:40:35.777Z,49.35
2019-03-19T19:43:03.421Z,39.00
2019-03-19T19:45:30.736Z,48.28
2019-03-19T19:47:58.086Z,31.82
2019-03-19T19:50:25.378Z,39.42
2019-03-19T19:52:52.665Z,30.90
2019-03-19T19:55:20.472Z,30.45
2019-03-19T19:57:47.804Z,27.62
2019-03-19T20:00:15.917Z,36.45
2019-03-19T20:02:43.376Z,21.80
2019-03-19T20:05:11.120Z,20.40
2019-03-19T20:07:38.687Z,28.02
2019-03-19T20:10:07.577Z,32.90
2019-03-19T20:12:34.866Z,25.57
2019-03-19T20:15:02.204Z,28.42
2019-03-19T20:17:29.563Z,28.87
2019-03-19T20:19:56.867Z,22.50
2019-03-19T20:22:24.171Z,22.82
2019-03-19T20:24:51.491Z,19.77
2019-03-19T20:27:18.762Z,18.20
2019-03-19T20:29:46.056Z,18.73
2019-03-19T20:32:13.415Z,32.23
2019-03-19T20:34:40.693Z,21.50
2019-03-19T20:37:07.975Z,21.90
2019-03-19T20:39:35.299Z,22.67
2019-03-19T20:42:02.654Z,22.35
2019-03-19T20:44:29.927Z,14.25
2019-03-19T20:46:57.208Z,16.62
2019-03-19T20:49:24.495Z,24.30
2019-03-19T20:51:51.774Z,21.93
2019-03-19T20:54:19.086Z,17.77
2019-03-19T20:56:46.429Z,15.85
2019-03-19T20:59:15.879Z,15.20
2019-03-19T21:01:42.746Z,18.85
2019-03-19T21:04:11.145Z,16.67
2019-03-19T21:06:38.422Z,16.20
2019-03-19T21:09:06.873Z,15.90
2019-03-19T21:11:34.278Z,17.52
2019-03-19T21:14:03.764Z,14.85
2019-03-19T21:16:31.097Z,13.78
2019-03-19T21:18:58.501Z,16.42
2019-03-19T21:21:25.859Z,14.68
2019-03-19T21:23:53.151Z,17.75
2019-03-19T21:26:20.547Z,16.45
2019-03-19T21:28:47.902Z,17.15
2019-03-19T21:31:15.191Z,15.38
2019-03-19T21:33:50.692Z,15.00
2019-03-19T21:36:11.543Z,13.10
2019-03-19T21:42:48.446Z,15.70
2019-03-19T21:47:52.020Z,13.15
2019-03-19T21:52:55.486Z,14.38
2019-03-19T21:57:59.302Z,18.25
2019-03-19T22:03:02.869Z,14.90
2019-03-19T22:08:06.441Z,14.60
2019-03-19T22:13:09.970Z,14.43
2019-03-19T22:18:13.527Z,14.23
2019-03-19T22:23:17.010Z,15.53
2019-03-19T22:28:20.473Z,13.28
2019-03-19T22:33:23.939Z,15.35
2019-03-19T22:38:27.408Z,14.45
2019-03-19T22:43:30.909Z,13.18
2019-03-19T22:48:43.225Z,15.38
2019-03-19T22:53:46.698Z,14.15
2019-03-19T23:26:48.075Z,16.15
2019-03-19T23:31:51.552Z,13.38
2019-03-19T23:36:55.100Z,15.43
2019-03-19T23:41:58.870Z,14.73
2019-03-19T23:47:02.462Z,14.35
2019-03-19T23:52:05.922Z,13.80
2019-03-19T23:57:09.407Z,14.40
